createdAt,value
2023-05-02T00:03:21.926Z,13.37
2023-05-02T00:07:25.102Z,13.31
2023-05-02T00:11:29.496Z,13.31
2023-05-02T00:15:32.589Z,13.32
2023-05-02T00:19:39.531Z,13.34
2023-05-02T00:23:42.596Z,13.35
2023-05-02T00:27:47.404Z,13.35
2023-05-02T00:31:50.459Z,13.37
2023-05-02T00:35:53.501Z,13.35
2023-05-02T00:39:57.351Z,13.35
2023-05-02T00:44:02.110Z,13.28
2023-05-02T00:48:05.814Z,13.24
2023-05-02T00:52:09.767Z,13.20
2023-05-02T00:56:13.122Z,13.14
2023-05-02T01:00:17.661Z,13.10
2023-05-02T01:04:33.578Z,13.06
2023-05-02T01:08:46.025Z,13.02
2023-05-02T01:12:55.992Z,13.03
2023-05-02T01:17:06.415Z,13.03
2023-05-02T01:21:11.172Z,13.03
2023-05-02T01:25:23.750Z,13.01
2023-05-02T01:29:30.689Z,12.96
2023-05-02T01:33:36.303Z,12.96
2023-05-02T01:37:40.627Z,12.97
2023-05-02T01:41:45.048Z,12.94
2023-05-02T01:45:53.178Z,12.91
2023-05-02T01:49:58.695Z,12.87
2023-05-02T01:54:05.704Z,12.87
2023-05-02T01:58:09.063Z,12.84
2023-05-02T02:02:15.781Z,12.83
2023-05-02T02:06:22.526Z,12.83
2023-05-02T02:10:29.142Z,12.84
2023-05-02T02:14:37.758Z,12.83
2023-05-02T02:18:46.635Z,12.85
2023-05-02T02:22:50.970Z,12.82
2023-05-02T02:26:54.043Z,12.82
2023-05-02T02:30:57.438Z,12.84
2023-05-02T02:35:03.076Z,12.83
2023-05-02T02:39:24.615Z,12.82
2023-05-02T02:43:34.973Z,12.78
2023-05-02T02:47:45.199Z,12.75
2023-05-02T02:51:57.834Z,12.75
2023-05-02T02:56:08.264Z,12.74
2023-05-02T03:00:17.787Z,12.72
2023-05-02T03:04:24.293Z,12.68
2023-05-02T03:08:28.798Z,12.65
2023-05-02T03:12:32.067Z,12.64
2023-05-02T03:16:39.747Z,12.58
2023-05-02T03:20:47.022Z,12.56
2023-05-02T03:24:52.256Z,12.54
2023-05-02T03:28:55.638Z,12.51
2023-05-02T03:33:07.911Z,12.51
2023-05-02T03:37:13.014Z,12.47
2023-05-02T03:41:17.694Z,12.45
2023-05-02T03:45:21.262Z,12.44
2023-05-02T03:49:27.006Z,12.42
2023-05-02T03:53:31.621Z,12.39
2023-05-02T03:57:37.064Z,12.37
2023-05-02T04:01:41.367Z,12.36
2023-05-02T04:05:46.350Z,12.38
2023-05-02T04:09:51.754Z,12.41
2023-05-02T04:13:56.267Z,12.47
2023-05-02T04:18:00.339Z,12.46
2023-05-02T04:22:06.279Z,12.51
2023-05-02T04:26:13.835Z,12.56
2023-05-02T04:30:34.293Z,12.57
2023-05-02T04:34:43.544Z,12.63
2023-05-02T04:38:47.528Z,12.71
2023-05-02T04:42:52.834Z,12.77
2023-05-02T04:47:00.280Z,12.82
2023-05-02T04:51:03.636Z,12.84
2023-05-02T04:55:08.521Z,12.83
2023-05-02T04:59:12.761Z,12.83
2023-05-02T05:03:17.458Z,12.85
2023-05-02T05:07:20.778Z,12.87
2023-05-02T05:11:26.830Z,12.90
2023-05-02T05:15:30.356Z,12.93
2023-05-02T05:19:37.641Z,12.95
2023-05-02T05:23:45.884Z,13.02
2023-05-02T05:27:52.556Z,13.10
2023-05-02T05:31:56.613Z,13.18
2023-05-02T05:36:06.877Z,13.25
2023-05-02T05:40:10.808Z,13.34
2023-05-02T05:44:15.813Z,13.36
2023-05-02T05:48:20.508Z,13.41
2023-05-02T05:52:25.168Z,13.50
2023-05-02T05:56:30.700Z,13.56
2023-05-02T06:00:42.393Z,13.57
2023-05-02T06:04:46.138Z,13.57
2023-05-02T06:08:52.912Z,13.57
2023-05-02T06:12:56.527Z,13.57
2023-05-02T06:17:04.464Z,13.59
2023-05-02T06:21:07.879Z,13.63
2023-05-02T06:25:13.402Z,13.69
2023-05-02T06:29:16.445Z,13.73
2023-05-02T06:33:19.606Z,13.82
2023-05-02T06:37:22.763Z,13.98
2023-05-02T06:41:27.230Z,14.14
2023-05-02T06:45:30.277Z,14.26
2023-05-02T06:49:33.295Z,14.38
2023-05-02T06:53:36.562Z,14.47
2023-05-02T06:57:41.633Z,14.54
2023-05-02T07:01:45.380Z,14.62
2023-05-02T07:05:48.391Z,14.72
2023-05-02T07:09:51.468Z,14.82
2023-05-02T07:13:55.921Z,14.95
2023-05-02T07:17:59.001Z,15.10
2023-05-02T07:22:02.111Z,15.22
2023-05-02T07:26:06.408Z,15.27
2023-05-02T07:30:11.983Z,15.31
2023-05-02T07:34:14.997Z,15.30
2023-05-02T07:38:18.113Z,15.34
2023-05-02T07:42:21.101Z,15.34
2023-05-02T07:46:25.728Z,15.34
2023-05-02T07:50:28.877Z,15.35
2023-05-02T07:54:31.937Z,15.40
2023-05-02T07:58:36.168Z,15.45
2023-05-02T08:02:40.686Z,15.42
2023-05-02T08:06:45.755Z,15.44
2023-05-02T08:10:51.266Z,15.42
2023-05-02T08:14:54.348Z,15.39
2023-05-02T08:18:58.713Z,15.39
2023-05-02T08:23:01.730Z,15.41
2023-05-02T08:27:04.935Z,15.47
2023-05-02T08:31:08.113Z,15.59
2023-05-02T08:35:12.650Z,15.62
2023-05-02T08:39:17.075Z,15.68
2023-05-02T08:43:20.842Z,15.78
2023-05-02T08:47:26.887Z,15.83
2023-05-02T08:51:32.627Z,15.86
2023-05-02T08:55:40.023Z,15.90
2023-05-02T08:59:43.974Z,15.91
2023-05-02T09:03:48.753Z,15.85
2023-05-02T09:07:53.523Z,15.85
2023-05-02T09:11:56.689Z,15.80
2023-05-02T09:16:01.435Z,15.84
2023-05-02T09:20:04.967Z,15.83
2023-05-02T09:24:18.335Z,15.81
2023-05-02T09:28:21.534Z,15.79
2023-05-02T09:32:47.330Z,15.83
2023-05-02T09:36:54.088Z,15.89
2023-05-02T09:40:59.003Z,15.92
2023-05-02T09:45:02.340Z,15.97
2023-05-02T09:49:05.490Z,16.00
2023-05-02T09:53:11.287Z,16.06
2023-05-02T09:57:15.822Z,16.09
2023-05-02T10:01:20.478Z,16.17
2023-05-02T10:05:23.814Z,16.26
2023-05-02T10:09:27.592Z,16.32
2023-05-02T10:13:34.929Z,16.35
2023-05-02T10:17:46.171Z,16.39
2023-05-02T10:21:49.603Z,16.40
2023-05-02T10:25:53.290Z,16.42
2023-05-02T10:29:59.888Z,16.42
2023-05-02T10:34:04.937Z,16.46
2023-05-02T10:38:08.509Z,16.49
2023-05-02T10:42:11.718Z,16.52
2023-05-02T10:46:36.032Z,16.59
2023-05-02T10:50:47.351Z,16.56
2023-05-02T10:54:50.412Z,16.57
2023-05-02T10:58:54.403Z,16.60
2023-05-02T11:02:59.222Z,16.60
2023-05-02T11:07:19.314Z,16.57
2023-05-02T11:11:43.643Z,16.49
2023-05-02T11:16:00.335Z,16.46
2023-05-02T11:20:32.399Z,16.44
2023-05-02T11:24:39.312Z,16.48
2023-05-02T11:28:48.383Z,16.48
2023-05-02T11:33:16.253Z,16.46
2023-05-02T11:37:22.343Z,16.48
2023-05-02T11:41:39.292Z,16.51
2023-05-02T11:45:43.825Z,16.55
2023-05-02T11:49:46.983Z,16.63
2023-05-02T11:53:51.541Z,16.75
2023-05-02T11:57:54.631Z,16.76
2023-05-02T12:01:58.176Z,16.86
2023-05-02T12:06:12.529Z,16.98
2023-05-02T12:10:17.451Z,17.10
2023-05-02T12:14:28.329Z,17.18
2023-05-02T12:18:31.636Z,17.29
2023-05-02T12:22:35.101Z,17.38
2023-05-02T12:26:39.541Z,17.46
2023-05-02T12:30:42.660Z,17.46
2023-05-02T12:34:47.668Z,17.50
2023-05-02T12:38:53.300Z,17.51
2023-05-02T12:43:04.246Z,17.53
2023-05-02T12:47:08.262Z,17.54
2023-05-02T12:51:22.577Z,17.51
2023-05-02T12:55:27.368Z,17.56
2023-05-02T12:59:32.896Z,17.60
2023-05-02T13:03:36.001Z,17.61
2023-05-02T13:07:39.235Z,17.59
2023-05-02T13:11:42.590Z,17.59
2023-05-02T13:15:47.120Z,17.54
2023-05-02T13:20:00.744Z,17.45
2023-05-02T13:24:05.870Z,17.40
2023-05-02T13:28:08.917Z,17.44
2023-05-02T13:32:13.461Z,17.33
2023-05-02T13:36:16.486Z,17.23
2023-05-02T13:40:19.580Z,17.15
2023-05-02T13:44:23.506Z,17.09
2023-05-02T13:48:27.932Z,17.05
2023-05-02T13:52:31.065Z,17.09
2023-05-02T13:56:34.153Z,17.03
2023-05-02T14:00:37.341Z,16.98
2023-05-02T14:04:41.836Z,16.95
2023-05-02T14:08:45.176Z,16.90
2023-05-02T14:12:48.259Z,16.89
2023-05-02T14:16:51.556Z,16.90
2023-05-02T14:20:57.915Z,16.91
2023-05-02T14:25:01.075Z,16.80
2023-05-02T14:29:04.594Z,16.78
2023-05-02T14:33:07.681Z,16.68
2023-05-02T14:37:12.200Z,16.62
2023-05-02T14:41:15.245Z,16.51
2023-05-02T14:45:18.470Z,16.50
2023-05-02T14:49:21.491Z,16.48
2023-05-02T14:53:26.382Z,16.43
2023-05-02T14:57:29.907Z,16.46
2023-05-02T15:01:33.097Z,16.43
2023-05-02T15:05:37.519Z,16.49
2023-05-02T15:09:42.238Z,16.52
2023-05-02T15:13:45.285Z,16.50
2023-05-02T15:17:48.424Z,16.45
2023-05-02T15:21:53.181Z,16.43
2023-05-02T15:25:57.650Z,16.44
2023-05-02T15:30:01.215Z,16.38
2023-05-02T15:34:04.820Z,16.26
2023-05-02T15:38:09.122Z,16.22
2023-05-02T15:42:13.997Z,16.15
2023-05-02T15:46:17.174Z,16.09
2023-05-02T15:50:20.635Z,16.04
2023-05-02T15:54:23.661Z,15.98
2023-05-02T15:58:28.204Z,15.96
2023-05-02T16:02:31.564Z,15.92
2023-05-02T16:06:34.722Z,15.80
2023-05-02T16:10:40.342Z,15.70
2023-05-02T16:14:44.903Z,15.69
2023-05-02T16:18:47.981Z,15.66
2023-05-02T16:22:51.405Z,15.62
2023-05-02T16:26:54.428Z,15.56
2023-05-02T16:30:58.848Z,15.52
2023-05-02T16:35:02.100Z,15.44
2023-05-02T16:39:05.304Z,15.37
2023-05-02T16:43:08.887Z,15.33
2023-05-02T16:47:13.324Z,15.32
2023-05-02T16:51:16.695Z,15.29
2023-05-02T16:55:20.003Z,15.30
2023-05-02T16:59:23.062Z,15.27
2023-05-02T17:03:27.837Z,15.25
2023-05-02T17:07:30.861Z,15.23
2023-05-02T17:11:34.210Z,15.20
2023-05-02T17:15:38.573Z,15.16
2023-05-02T17:19:43.034Z,15.09
2023-05-02T17:23:46.362Z,15.08
2023-05-02T17:27:49.469Z,15.03
2023-05-02T17:31:52.548Z,14.97
2023-05-02T17:35:57.011Z,14.93
2023-05-02T17:40:01.353Z,14.88
2023-05-02T17:44:05.735Z,14.87
2023-05-02T17:48:08.874Z,14.86
2023-05-02T17:52:13.415Z,14.83
2023-05-02T17:56:18.850Z,14.75
2023-05-02T18:00:22.356Z,14.64
2023-05-02T18:04:25.591Z,14.57
2023-05-02T18:08:31.268Z,14.50
2023-05-02T18:12:34.541Z,14.42
2023-05-02T18:16:37.625Z,14.32
2023-05-02T18:20:41.970Z,14.25
2023-05-02T18:24:46.448Z,14.19
2023-05-02T18:28:53.324Z,14.12
2023-05-02T18:32:56.840Z,14.04
2023-05-02T18:37:01.854Z,13.95
2023-05-02T18:41:06.236Z,13.91
2023-05-02T18:45:09.684Z,13.88
2023-05-02T18:49:12.887Z,13.88
2023-05-02T18:53:16.391Z,13.82
2023-05-02T18:57:21.643Z,13.76
2023-05-02T19:01:25.616Z,13.74
2023-05-02T19:05:28.917Z,13.70
2023-05-02T19:09:34.637Z,13.65
2023-05-02T19:13:39.192Z,13.62
2023-05-02T19:17:43.447Z,13.56
2023-05-02T19:21:48.094Z,13.55
2023-05-02T19:25:51.271Z,13.50
2023-05-02T19:29:58.087Z,13.47
2023-05-02T19:34:01.077Z,13.40
2023-05-02T19:38:04.259Z,13.37
2023-05-02T19:42:07.466Z,13.35
2023-05-02T19:46:11.973Z,13.33
2023-05-02T19:50:15.503Z,13.30
2023-05-02T19:54:18.572Z,13.28
2023-05-02T19:58:21.663Z,13.28
2023-05-02T20:02:26.334Z,13.29
2023-05-02T20:06:31.498Z,13.28
2023-05-02T20:10:35.030Z,13.25
2023-05-02T20:14:38.228Z,13.23
2023-05-02T20:18:42.603Z,13.24
2023-05-02T20:22:45.686Z,13.23
2023-05-02T20:26:48.856Z,13.23
2023-05-02T20:30:51.889Z,13.20
2023-05-02T20:34:56.395Z,13.17
2023-05-02T20:38:59.548Z,13.14
2023-05-02T20:43:02.572Z,13.11
2023-05-02T20:47:05.648Z,13.08
2023-05-02T20:51:10.099Z,13.09
2023-05-02T20:55:13.144Z,13.10
2023-05-02T20:59:16.223Z,13.10
2023-05-02T21:03:19.616Z,13.10
2023-05-02T21:07:24.090Z,13.10
2023-05-02T21:11:27.103Z,13.07
2023-05-02T21:15:30.122Z,13.04
2023-05-02T21:19:34.122Z,13.04
2023-05-02T21:23:38.772Z,13.01
2023-05-02T21:27:41.808Z,13.01
2023-05-02T21:31:44.885Z,13.01
2023-05-02T21:35:47.922Z,13.00
2023-05-02T21:39:52.287Z,12.99
2023-05-02T21:43:55.296Z,12.94
2023-05-02T21:47:58.719Z,12.91
2023-05-02T21:52:01.939Z,12.88
2023-05-02T21:56:07.578Z,12.87
2023-05-02T22:00:13.168Z,12.86
2023-05-02T22:04:18.288Z,12.82
2023-05-02T22:08:22.068Z,12.80
2023-05-02T22:12:27.459Z,12.77
2023-05-02T22:16:30.913Z,12.75
2023-05-02T22:20:34.038Z,12.72
2023-05-02T22:24:37.268Z,12.69
2023-05-02T22:28:41.838Z,12.73
2023-05-02T22:32:44.897Z,12.76
2023-05-02T22:36:47.955Z,12.76
2023-05-02T22:40:50.947Z,12.75
2023-05-02T22:44:55.356Z,12.71
2023-05-02T22:48:58.832Z,12.68
2023-05-02T22:53:03.887Z,12.67
2023-05-02T22:57:07.384Z,12.64
2023-05-02T23:01:11.774Z,12.62
2023-05-02T23:05:36.603Z,12.54
2023-05-02T23:09:39.620Z,12.52
2023-05-02T23:13:42.712Z,12.49
2023-05-02T23:17:47.103Z,12.47
2023-05-02T23:21:50.173Z,12.43
2023-05-02T23:25:53.369Z,12.40
2023-05-02T23:29:56.348Z,12.38
2023-05-02T23:34:01.529Z,12.32
2023-05-02T23:38:08.072Z,12.27
2023-05-02T23:42:11.365Z,12.26
2023-05-02T23:46:14.413Z,12.22
2023-05-02T23:50:19.466Z,12.21
2023-05-02T23:54:22.454Z,12.18
2023-05-02T23:58:25.562Z,12.17
